createdAt,value
2023-01-30T00:07:42.743Z,85.97
2023-01-30T00:17:48.357Z,86.28
2023-01-30T00:27:53.723Z,86.16
2023-01-30T00:37:59.700Z,86.25
2023-01-30T00:48:05.391Z,86.16
2023-01-30T00:58:11.178Z,86.38
2023-01-30T01:08:16.970Z,86.54
2023-01-30T01:18:22.407Z,86.41
2023-01-30T01:28:28.029Z,86.38
2023-01-30T01:38:33.383Z,86.23
2023-01-30T01:48:37.844Z,86.38
2023-01-30T01:58:44.639Z,86.33
2023-01-30T02:08:51.808Z,86.13
2023-01-30T02:18:57.539Z,86.17
2023-01-30T02:29:20.534Z,85.83
2023-01-30T02:39:26.457Z,85.83
2023-01-30T02:49:33.651Z,85.63
2023-01-30T02:59:41.688Z,85.51
2023-01-30T03:09:47.731Z,85.33
2023-01-30T03:19:52.047Z,85.24
2023-01-30T03:29:57.513Z,84.98
2023-01-30T03:40:03.450Z,85.15
2023-01-30T03:50:07.885Z,85.22
2023-01-30T04:00:14.727Z,85.24
2023-01-30T04:10:20.279Z,85.15
2023-01-30T04:20:25.133Z,85.06
2023-01-30T04:30:29.663Z,85.09
2023-01-30T04:40:35.456Z,85.00
2023-01-30T04:50:41.438Z,85.10
2023-01-30T05:00:47.270Z,85.03
2023-01-30T05:10:52.994Z,85.06
2023-01-30T05:20:58.623Z,84.87
2023-01-30T05:31:02.825Z,84.87
2023-01-30T05:41:09.712Z,85.02
2023-01-30T05:51:17.458Z,84.73
2023-01-30T06:01:24.352Z,84.50
2023-01-30T06:11:29.904Z,84.52
2023-01-30T06:21:35.448Z,84.32
2023-01-30T06:31:41.199Z,84.17
2023-01-30T06:41:46.870Z,84.26
2023-01-30T06:51:52.458Z,84.02
2023-01-30T07:01:58.180Z,83.80
2023-01-30T07:12:03.865Z,83.59
2023-01-30T07:22:09.322Z,83.60
2023-01-30T07:32:16.220Z,83.62
2023-01-30T07:42:21.525Z,83.45
2023-01-30T07:52:27.274Z,83.09
2023-01-30T08:02:33.381Z,82.80
2023-01-30T08:12:39.463Z,82.89
2023-01-30T08:22:45.085Z,82.56
2023-01-30T08:32:50.995Z,82.61
2023-01-30T08:42:56.935Z,82.40
2023-01-30T08:53:04.538Z,82.26
2023-01-30T09:03:10.557Z,82.40
2023-01-30T09:13:17.337Z,82.49
2023-01-30T09:23:22.851Z,82.89
2023-01-30T09:33:28.405Z,83.09
2023-01-30T09:43:35.515Z,83.36
2023-01-30T09:53:41.546Z,83.82
2023-01-30T10:03:48.809Z,84.07
2023-01-30T10:13:59.562Z,84.38
2023-01-30T10:24:09.618Z,84.57
2023-01-30T10:34:18.534Z,84.76
2023-01-30T10:44:23.203Z,84.85
2023-01-30T10:54:33.092Z,85.14
2023-01-30T11:04:37.538Z,85.47
2023-01-30T11:14:54.822Z,85.65
2023-01-30T11:25:02.391Z,85.78
2023-01-30T11:35:13.087Z,85.92
2023-01-30T11:45:20.401Z,86.24
2023-01-30T11:55:26.317Z,86.35
2023-01-30T12:05:32.276Z,86.35
2023-01-30T12:15:39.268Z,86.72
2023-01-30T12:25:44.858Z,86.88
2023-01-30T12:35:50.322Z,87.01
2023-01-30T12:45:56.318Z,87.48
2023-01-30T12:56:19.296Z,87.91
2023-01-30T13:06:25.687Z,88.07
2023-01-30T13:16:30.055Z,88.11
2023-01-30T13:26:40.065Z,88.27
2023-01-30T13:36:48.573Z,88.64
2023-01-30T13:46:55.867Z,88.69
2023-01-30T13:57:00.316Z,88.78
2023-01-30T14:07:09.758Z,88.83
2023-01-30T14:17:16.650Z,88.91
2023-01-30T14:27:24.560Z,88.99
2023-01-30T14:37:47.658Z,89.18
2023-01-30T14:48:13.466Z,89.20
2023-01-30T14:58:19.711Z,89.42
2023-01-30T15:08:27.037Z,89.69
2023-01-30T15:18:37.021Z,89.78
2023-01-30T15:28:42.446Z,90.11
2023-01-30T15:38:47.925Z,90.47
2023-01-30T15:49:07.380Z,90.93
2023-01-30T15:59:13.603Z,91.31
2023-01-30T16:09:19.551Z,91.58
2023-01-30T16:19:26.785Z,91.31
2023-01-30T16:29:34.778Z,91.06
2023-01-30T16:39:40.324Z,91.05
2023-01-30T16:49:45.288Z,90.95
2023-01-30T16:59:50.452Z,90.86
2023-01-30T17:09:56.512Z,91.04
2023-01-30T17:20:02.484Z,91.26
2023-01-30T17:30:10.047Z,91.32
2023-01-30T17:40:15.645Z,91.43
2023-01-30T17:50:21.498Z,91.37
2023-01-30T18:00:27.349Z,91.45
2023-01-30T18:10:32.798Z,91.51
2023-01-30T18:20:38.344Z,91.72
2023-01-30T18:30:44.143Z,91.60
2023-01-30T18:40:50.259Z,91.72
2023-01-30T18:50:55.781Z,91.74
2023-01-30T19:01:01.417Z,91.74
2023-01-30T19:11:28.438Z,91.67
2023-01-30T19:21:34.611Z,91.78
2023-01-30T19:31:40.811Z,91.87
2023-01-30T19:51:51.542Z,92.04
2023-01-30T20:01:57.321Z,92.37
2023-01-30T20:12:02.922Z,92.24
2023-01-30T20:22:08.630Z,92.95
2023-01-30T20:32:14.317Z,93.11
2023-01-30T20:42:20.214Z,93.20
2023-01-30T20:52:25.731Z,93.20
2023-01-30T21:02:31.377Z,93.44
2023-01-30T21:12:37.384Z,93.81
2023-01-30T21:22:42.891Z,93.65
2023-01-30T21:32:48.568Z,93.46
2023-01-30T21:43:12.008Z,93.67
2023-01-30T21:53:17.608Z,93.71
2023-01-30T22:03:27.022Z,93.75
2023-01-30T22:13:32.511Z,93.67
2023-01-30T22:23:39.869Z,93.79
2023-01-30T22:33:46.158Z,93.49
2023-01-30T22:43:52.257Z,93.50
2023-01-30T22:53:58.593Z,93.76
2023-01-30T23:04:05.719Z,94.18
2023-01-30T23:14:12.621Z,94.28
2023-01-30T23:24:19.588Z,94.22
2023-01-30T23:34:25.307Z,94.07
2023-01-30T23:44:30.957Z,94.26
2023-01-30T23:54:36.390Z,94.05
